createdAt,value
2022-11-05T00:00:51.759Z,16.80
2022-11-05T00:03:38.057Z,17.27
2022-11-05T00:06:27.792Z,14.38
2022-11-05T00:09:14.365Z,14.65
2022-11-05T00:12:00.434Z,19.75
2022-11-05T00:14:46.439Z,18.95
2022-11-05T00:17:13.922Z,16.37
2022-11-05T00:19:41.387Z,20.65
2022-11-05T00:22:27.355Z,17.15
2022-11-05T00:25:13.227Z,15.43
2022-11-05T00:27:41.444Z,14.80
2022-11-05T00:30:09.774Z,17.67
2022-11-05T00:32:37.805Z,16.75
2022-11-05T00:35:07.446Z,17.10
2022-11-05T00:37:35.753Z,18.10
2022-11-05T00:40:04.436Z,16.02
2022-11-05T00:42:50.575Z,13.23
2022-11-05T00:45:18.282Z,14.13
2022-11-05T00:48:04.953Z,10.57
2022-11-05T00:50:33.703Z,10.32
2022-11-05T00:53:01.933Z,8.70
2022-11-05T00:55:38.448Z,9.13
2022-11-05T00:58:23.959Z,9.77
2022-11-05T01:00:54.213Z,9.60
2022-11-05T01:03:24.511Z,7.95
2022-11-05T01:05:55.130Z,7.95
2022-11-05T01:08:24.875Z,7.17
2022-11-05T01:10:57.761Z,8.68
2022-11-05T01:13:28.521Z,14.88
2022-11-05T01:15:56.552Z,10.65
2022-11-05T01:18:25.439Z,10.60
2022-11-05T01:20:53.196Z,7.77
2022-11-05T01:23:21.235Z,8.20
2022-11-05T01:25:49.136Z,8.30
2022-11-05T01:28:16.795Z,7.00
2022-11-05T01:30:44.436Z,9.65
2022-11-05T01:33:12.144Z,9.17
2022-11-05T01:35:40.046Z,8.93
2022-11-05T01:38:07.526Z,9.23
2022-11-05T01:40:35.140Z,9.68
2022-11-05T01:43:02.636Z,8.30
2022-11-05T01:45:30.182Z,10.47
2022-11-05T01:48:23.510Z,10.05
2022-11-05T01:50:56.942Z,7.68
2022-11-05T01:53:36.271Z,7.82
2022-11-05T01:56:29.633Z,8.30
2022-11-05T01:59:09.354Z,7.20
2022-11-05T02:01:37.020Z,5.72
2022-11-05T02:04:09.568Z,5.20
2022-11-05T02:06:46.064Z,5.80
2022-11-05T02:09:18.777Z,6.10
2022-11-05T02:11:46.932Z,6.20
2022-11-05T02:14:14.393Z,5.13
2022-11-05T02:16:49.447Z,7.80
2022-11-05T02:19:57.372Z,6.78
2022-11-05T02:23:02.273Z,7.30
2022-11-05T02:26:11.903Z,6.20
2022-11-05T02:29:04.036Z,7.03
2022-11-05T02:31:34.224Z,7.03
2022-11-05T02:34:33.124Z,7.13
2022-11-05T02:37:15.359Z,6.50
2022-11-05T02:39:54.462Z,6.73
2022-11-05T02:42:29.917Z,7.00
2022-11-05T02:45:05.300Z,4.88
2022-11-05T02:47:45.892Z,5.30
2022-11-05T02:50:25.020Z,6.35
2022-11-05T02:53:23.886Z,6.27
2022-11-05T02:56:04.335Z,6.85
2022-11-05T02:58:33.809Z,6.38
2022-11-05T03:01:06.848Z,6.45
2022-11-05T03:03:39.063Z,7.50
2022-11-05T03:06:34.038Z,7.33
2022-11-05T03:09:15.470Z,6.15
2022-11-05T03:11:51.483Z,5.78
2022-11-05T03:14:50.209Z,6.45
2022-11-05T03:17:17.817Z,6.68
2022-11-05T03:19:53.855Z,8.17
2022-11-05T03:22:26.130Z,7.88
2022-11-05T03:25:02.433Z,6.82
2022-11-05T03:27:34.649Z,7.97
2022-11-05T03:30:06.856Z,7.40
2022-11-05T03:32:38.631Z,7.60
2022-11-05T03:35:12.971Z,8.38
2022-11-05T03:37:43.567Z,9.23
2022-11-05T03:40:13.779Z,5.97
2022-11-05T03:42:45.308Z,6.15
2022-11-05T03:45:20.774Z,7.13
2022-11-05T03:47:51.275Z,6.50
2022-11-05T03:50:29.028Z,6.32
2022-11-05T03:53:19.955Z,6.75
2022-11-05T03:55:50.893Z,6.18
2022-11-05T03:58:21.756Z,5.60
2022-11-05T04:00:50.866Z,6.93
2022-11-05T04:03:18.575Z,5.45
2022-11-05T04:06:06.359Z,7.20
2022-11-05T04:08:52.756Z,8.30
2022-11-05T04:11:38.826Z,7.87
2022-11-05T04:14:06.393Z,6.82
2022-11-05T04:16:52.543Z,6.35
2022-11-05T04:19:40.078Z,7.07
2022-11-05T04:22:26.473Z,7.50
2022-11-05T04:24:54.036Z,7.77
2022-11-05T04:27:21.529Z,10.00
2022-11-05T04:30:07.549Z,7.05
2022-11-05T04:32:35.056Z,6.72
2022-11-05T04:35:02.677Z,5.78
2022-11-05T04:37:30.266Z,6.30
2022-11-05T04:39:57.728Z,6.13
2022-11-05T04:42:25.382Z,9.43
2022-11-05T04:44:52.873Z,5.55
2022-11-05T04:47:20.340Z,5.90
2022-11-05T04:49:47.807Z,7.37
2022-11-05T04:52:15.463Z,5.78
2022-11-05T04:54:42.940Z,5.35
2022-11-05T04:57:10.399Z,5.45
2022-11-05T04:59:37.976Z,5.35
2022-11-05T05:02:05.632Z,5.63
2022-11-05T05:04:33.294Z,6.60
2022-11-05T05:07:00.812Z,9.93
2022-11-05T05:09:28.312Z,5.10
2022-11-05T05:11:55.815Z,5.97
2022-11-05T05:14:23.376Z,4.67
2022-11-05T05:16:50.885Z,8.73
2022-11-05T05:19:18.408Z,9.05
2022-11-05T05:21:45.994Z,5.75
2022-11-05T05:24:17.469Z,4.55
2022-11-05T05:26:50.266Z,6.70
2022-11-05T05:29:18.601Z,4.85
2022-11-05T05:31:46.149Z,3.45
2022-11-05T05:34:14.879Z,3.60
2022-11-05T05:36:42.314Z,4.95
2022-11-05T05:39:11.133Z,5.27
2022-11-05T05:41:38.835Z,3.97
2022-11-05T05:44:06.760Z,4.35
2022-11-05T05:46:34.294Z,3.38
2022-11-05T05:49:01.894Z,4.70
2022-11-05T05:51:29.371Z,5.10
2022-11-05T05:53:56.884Z,4.90
2022-11-05T05:56:24.392Z,5.35
2022-11-05T05:58:52.350Z,6.32
2022-11-05T06:01:20.314Z,4.05
2022-11-05T06:03:48.994Z,3.37
2022-11-05T06:06:21.207Z,5.07
2022-11-05T06:08:49.171Z,3.25
2022-11-05T06:11:16.814Z,4.45
2022-11-05T06:13:44.511Z,4.70
2022-11-05T06:16:12.066Z,6.30
2022-11-05T06:18:39.722Z,4.78
2022-11-05T06:21:09.963Z,5.22
2022-11-05T06:23:39.895Z,6.35
2022-11-05T06:26:13.427Z,6.10
2022-11-05T06:28:42.418Z,8.33
2022-11-05T06:31:10.909Z,8.18
2022-11-05T06:33:39.763Z,6.55
2022-11-05T06:36:08.888Z,6.25
2022-11-05T06:38:36.940Z,6.57
2022-11-05T06:41:10.044Z,6.97
2022-11-05T06:43:38.741Z,6.60
2022-11-05T06:46:06.821Z,9.05
2022-11-05T06:48:34.397Z,7.28
2022-11-05T06:51:02.578Z,8.35
2022-11-05T06:53:30.712Z,8.63
2022-11-05T06:56:01.387Z,9.05
2022-11-05T06:58:29.601Z,9.15
2022-11-05T07:01:01.512Z,7.53
2022-11-05T07:03:29.651Z,9.50
2022-11-05T07:06:00.443Z,9.10
2022-11-05T07:08:32.391Z,9.65
2022-11-05T07:11:00.209Z,9.85
2022-11-05T07:13:28.027Z,10.32
2022-11-05T07:15:56.083Z,9.40
2022-11-05T07:18:24.042Z,10.57
2022-11-05T07:20:51.634Z,7.20
2022-11-05T07:23:19.197Z,9.32
2022-11-05T07:25:46.883Z,8.40
2022-11-05T07:28:14.637Z,7.70
2022-11-05T07:30:42.279Z,9.53
2022-11-05T07:33:10.297Z,8.30
2022-11-05T07:35:38.059Z,6.75
2022-11-05T07:38:05.629Z,6.47
2022-11-05T07:40:33.135Z,9.27
2022-11-05T07:43:01.790Z,8.67
2022-11-05T07:45:31.317Z,5.60
2022-11-05T07:48:01.358Z,8.93
2022-11-05T07:50:32.129Z,6.45
2022-11-05T07:53:01.386Z,7.47
2022-11-05T07:55:30.628Z,5.50
2022-11-05T07:57:59.068Z,8.98
2022-11-05T08:00:27.807Z,6.65
2022-11-05T08:03:07.665Z,5.65
2022-11-05T08:05:47.680Z,7.18
2022-11-05T08:08:19.836Z,5.33
2022-11-05T08:10:47.439Z,5.10
2022-11-05T08:13:15.528Z,7.43
2022-11-05T08:15:43.696Z,5.38
2022-11-05T08:18:14.810Z,7.05
2022-11-05T08:20:43.713Z,7.03
2022-11-05T08:23:11.896Z,6.63
2022-11-05T08:25:40.271Z,4.63
2022-11-05T08:28:13.590Z,6.63
2022-11-05T08:30:41.247Z,9.18
2022-11-05T08:33:13.234Z,6.50
2022-11-05T08:35:41.977Z,6.30
2022-11-05T08:38:15.992Z,6.10
2022-11-05T08:40:45.478Z,9.80
2022-11-05T08:43:14.772Z,6.72
2022-11-05T08:45:42.755Z,6.20
2022-11-05T08:48:15.613Z,6.43
2022-11-05T08:50:44.463Z,7.63
2022-11-05T08:53:12.595Z,8.65
2022-11-05T08:55:40.430Z,5.28
2022-11-05T08:58:12.690Z,6.97
2022-11-05T09:00:40.870Z,6.68
2022-11-05T09:03:09.942Z,6.70
2022-11-05T09:05:40.145Z,9.10
2022-11-05T09:08:32.772Z,8.55
2022-11-05T09:11:00.951Z,8.90
2022-11-05T09:13:28.829Z,9.07
2022-11-05T09:15:58.907Z,7.90
2022-11-05T09:18:26.656Z,8.38
2022-11-05T09:20:54.307Z,7.40
2022-11-05T09:23:22.197Z,9.43
2022-11-05T09:25:49.899Z,9.15
2022-11-05T09:28:19.105Z,6.30
2022-11-05T09:31:12.335Z,6.93
2022-11-05T09:33:41.095Z,9.88
2022-11-05T09:36:08.985Z,7.67
2022-11-05T09:38:37.088Z,8.57
2022-11-05T09:41:24.129Z,7.22
2022-11-05T09:43:56.578Z,7.65
2022-11-05T09:46:27.318Z,8.55
2022-11-05T09:49:06.196Z,10.30
2022-11-05T09:51:36.202Z,8.80
2022-11-05T09:54:05.643Z,9.23
2022-11-05T09:56:37.288Z,9.23
2022-11-05T09:59:17.513Z,8.68
2022-11-05T10:01:46.162Z,8.33
2022-11-05T10:04:18.313Z,8.40
2022-11-05T10:07:05.504Z,8.25
2022-11-05T10:09:56.045Z,8.65
2022-11-05T10:12:34.599Z,7.78
2022-11-05T10:15:21.706Z,10.17
2022-11-05T10:17:58.662Z,8.63
2022-11-05T10:20:38.343Z,9.23
2022-11-05T10:23:17.887Z,10.18
2022-11-05T10:25:47.998Z,8.95
2022-11-05T10:28:20.970Z,8.47
2022-11-05T10:30:55.745Z,9.98
2022-11-05T10:33:30.910Z,10.40
2022-11-05T10:36:04.683Z,9.40
2022-11-05T10:38:33.366Z,8.88
2022-11-05T10:41:07.230Z,8.13
2022-11-05T10:43:43.264Z,10.25
2022-11-05T10:46:32.719Z,13.25
2022-11-05T10:49:20.649Z,10.38
2022-11-05T10:51:55.733Z,7.68
2022-11-05T10:54:26.460Z,8.37
2022-11-05T10:56:54.037Z,11.27
2022-11-05T10:59:30.260Z,10.13
2022-11-05T11:02:01.159Z,7.93
2022-11-05T11:04:36.540Z,10.25
2022-11-05T11:07:05.746Z,7.73
2022-11-05T11:09:36.637Z,9.05
2022-11-05T11:12:19.699Z,7.95
2022-11-05T11:15:28.247Z,9.55
2022-11-05T11:17:56.678Z,8.27
2022-11-05T11:20:28.836Z,11.97
2022-11-05T11:23:17.045Z,7.28
2022-11-05T11:26:03.781Z,6.57
2022-11-05T11:28:46.094Z,7.22
2022-11-05T11:31:15.164Z,5.80
2022-11-05T11:33:47.110Z,7.33
2022-11-05T11:36:18.703Z,6.82
2022-11-05T11:38:46.426Z,7.50
2022-11-05T11:41:30.522Z,7.97
2022-11-05T11:44:24.693Z,6.55
2022-11-05T11:46:55.595Z,8.50
2022-11-05T11:49:53.530Z,11.18
2022-11-05T11:52:36.728Z,7.38
2022-11-05T11:55:22.933Z,6.55
2022-11-05T11:57:53.389Z,10.05
2022-11-05T12:00:24.127Z,7.23
2022-11-05T12:03:22.685Z,9.00
2022-11-05T12:05:53.259Z,8.10
2022-11-05T12:09:05.335Z,9.05
2022-11-05T12:11:44.545Z,6.57
2022-11-05T12:14:33.071Z,7.57
2022-11-05T12:17:15.741Z,8.00
2022-11-05T12:19:49.304Z,7.45
2022-11-05T12:22:38.290Z,9.90
2022-11-05T12:25:33.375Z,8.02
2022-11-05T12:28:13.890Z,8.53
2022-11-05T12:30:54.066Z,8.10
2022-11-05T12:33:42.360Z,7.80
2022-11-05T12:36:15.643Z,6.50
2022-11-05T12:38:51.822Z,7.05
2022-11-05T12:41:39.393Z,6.27
2022-11-05T12:44:44.358Z,7.95
2022-11-05T12:47:24.809Z,7.63
2022-11-05T12:50:10.080Z,6.43
2022-11-05T12:53:14.904Z,7.88
2022-11-05T12:55:49.563Z,9.23
2022-11-05T12:58:40.035Z,7.95
2022-11-05T13:01:13.479Z,9.57
2022-11-05T13:03:53.427Z,8.82
2022-11-05T13:06:40.354Z,9.85
2022-11-05T13:09:20.105Z,13.30
2022-11-05T13:11:57.357Z,13.15
2022-11-05T13:14:30.834Z,14.73
2022-11-05T13:17:13.211Z,7.47
2022-11-05T13:19:57.118Z,10.15
2022-11-05T13:22:39.971Z,14.10
2022-11-05T13:25:11.029Z,16.67
2022-11-05T13:27:46.147Z,23.88
2022-11-05T13:30:26.442Z,13.00
2022-11-05T13:33:04.303Z,23.88
2022-11-05T13:35:41.250Z,16.13
2022-11-05T13:38:36.461Z,13.27
2022-11-05T13:41:34.110Z,11.48
2022-11-05T13:44:35.737Z,14.57
2022-11-05T13:47:09.354Z,12.75
2022-11-05T13:50:06.854Z,14.70
2022-11-05T13:53:04.731Z,14.75
2022-11-05T13:56:03.265Z,18.67
2022-11-05T13:58:55.950Z,14.18
2022-11-05T14:01:42.879Z,19.25
2022-11-05T14:04:25.557Z,19.30
2022-11-05T14:06:54.258Z,18.30
2022-11-05T14:09:27.553Z,16.15
2022-11-05T14:11:57.409Z,17.55
2022-11-05T14:14:30.859Z,17.30
2022-11-05T14:17:07.221Z,15.90
2022-11-05T14:20:06.946Z,16.70
2022-11-05T14:22:34.482Z,15.73
2022-11-05T14:25:24.372Z,18.23
2022-11-05T14:27:52.659Z,13.57
2022-11-05T14:30:44.425Z,16.93
2022-11-05T14:33:24.342Z,19.38
2022-11-05T14:35:53.690Z,17.88
2022-11-05T14:38:28.416Z,13.80
2022-11-05T14:41:01.557Z,16.33
2022-11-05T14:43:33.641Z,8.97
2022-11-05T14:46:06.207Z,12.05
2022-11-05T14:48:44.261Z,10.30
2022-11-05T14:51:40.627Z,18.15
2022-11-05T14:54:25.178Z,11.38
2022-11-05T14:56:58.748Z,10.93
2022-11-05T14:59:28.848Z,10.48
2022-11-05T15:02:01.745Z,10.75
2022-11-05T15:04:33.654Z,9.98
2022-11-05T15:07:04.888Z,11.15
2022-11-05T15:09:38.296Z,13.37
2022-11-05T15:12:09.625Z,11.65
2022-11-05T15:15:00.835Z,12.38
2022-11-05T15:17:38.759Z,14.52
2022-11-05T15:20:41.575Z,12.40
2022-11-05T15:23:14.738Z,17.07
2022-11-05T15:25:53.335Z,13.82
2022-11-05T15:28:38.423Z,13.88
2022-11-05T15:31:26.831Z,13.88
2022-11-05T15:34:20.513Z,16.63
2022-11-05T15:37:00.201Z,10.77
2022-11-05T15:39:38.398Z,17.27
2022-11-05T15:42:13.435Z,13.57
2022-11-05T15:44:45.291Z,15.43
2022-11-05T15:47:17.526Z,17.02
2022-11-05T15:49:48.368Z,13.27
2022-11-05T15:52:18.074Z,18.48
2022-11-05T15:54:45.893Z,14.80
2022-11-05T15:57:29.218Z,18.25
2022-11-05T15:59:56.866Z,16.33
2022-11-05T16:02:27.064Z,16.63
2022-11-05T16:04:55.296Z,18.10
2022-11-05T16:07:23.376Z,16.88
2022-11-05T16:09:57.138Z,17.40
2022-11-05T16:12:30.561Z,15.82
2022-11-05T16:15:10.598Z,24.33
2022-11-05T16:17:44.227Z,26.52
2022-11-05T16:20:18.194Z,25.00
2022-11-05T16:22:51.701Z,20.42
2022-11-05T16:25:31.372Z,22.30
2022-11-05T16:28:00.671Z,25.40
2022-11-05T16:30:31.538Z,18.85
2022-11-05T16:33:08.044Z,18.02
2022-11-05T16:35:40.319Z,15.98
2022-11-05T16:38:11.922Z,17.25
2022-11-05T16:40:39.624Z,12.87
2022-11-05T16:43:18.999Z,13.63
2022-11-05T16:45:46.839Z,20.08
2022-11-05T16:48:15.258Z,15.15
2022-11-05T16:50:45.399Z,14.88
2022-11-05T16:53:13.661Z,17.27
2022-11-05T16:55:43.294Z,15.57
2022-11-05T16:58:23.428Z,17.45
2022-11-05T17:00:55.371Z,18.42
2022-11-05T17:03:22.927Z,19.20
2022-11-05T17:05:50.500Z,18.00
2022-11-05T17:08:18.191Z,19.65
2022-11-05T17:10:45.970Z,15.35
2022-11-05T17:13:16.372Z,18.10
2022-11-05T17:15:46.885Z,16.08
2022-11-05T17:18:18.526Z,16.63
2022-11-05T17:20:49.842Z,24.42
2022-11-05T17:23:20.118Z,33.75
2022-11-05T17:25:51.081Z,26.55
2022-11-05T17:28:19.788Z,18.38
2022-11-05T17:30:54.293Z,20.80
2022-11-05T17:33:23.392Z,22.38
2022-11-05T17:35:52.872Z,19.17
2022-11-05T17:38:22.221Z,20.23
2022-11-05T17:40:50.496Z,18.13
2022-11-05T17:43:18.931Z,18.83
2022-11-05T17:45:49.852Z,20.70
2022-11-05T17:48:18.817Z,20.20
2022-11-05T17:50:48.646Z,16.55
2022-11-05T17:53:18.785Z,17.38
2022-11-05T17:55:47.232Z,25.43
2022-11-05T17:58:14.958Z,18.95
2022-11-05T18:00:44.327Z,17.83
2022-11-05T18:03:13.054Z,22.67
2022-11-05T18:05:41.678Z,29.45
2022-11-05T18:08:09.979Z,29.37
2022-11-05T18:10:38.672Z,29.95
2022-11-05T18:13:06.893Z,26.40
2022-11-05T18:15:36.407Z,25.63
2022-11-05T18:18:04.363Z,18.55
2022-11-05T18:20:32.964Z,18.93
2022-11-05T18:23:00.579Z,18.52
2022-11-05T18:25:28.081Z,18.35
2022-11-05T18:27:56.089Z,20.98
2022-11-05T18:30:23.661Z,20.73
2022-11-05T18:32:51.332Z,22.63
2022-11-05T18:35:18.870Z,19.17
2022-11-05T18:37:46.457Z,22.08
2022-11-05T18:40:14.098Z,19.60
2022-11-05T18:42:41.723Z,27.08
2022-11-05T18:45:10.415Z,25.53
2022-11-05T18:47:38.522Z,27.15
2022-11-05T18:50:07.812Z,30.50
2022-11-05T18:52:35.641Z,27.65
2022-11-05T18:55:03.488Z,31.90
2022-11-05T18:57:33.570Z,45.93
2022-11-05T19:00:01.140Z,54.00
2022-11-05T19:02:28.801Z,54.05
2022-11-05T19:05:22.533Z,56.20
2022-11-05T19:07:44.340Z,50.03
2022-11-05T19:10:11.889Z,48.00
2022-11-05T19:12:40.529Z,53.42
2022-11-05T19:15:08.933Z,48.35
2022-11-05T19:17:36.838Z,53.88
2022-11-05T19:20:06.939Z,42.40
2022-11-05T19:22:34.537Z,43.63
2022-11-05T19:25:02.048Z,55.45
2022-11-05T19:27:29.643Z,53.17
2022-11-05T19:29:57.320Z,56.45
2022-11-05T19:32:24.827Z,61.08
2022-11-05T19:34:52.323Z,59.23
2022-11-05T19:37:20.095Z,61.85
2022-11-05T19:39:47.570Z,67.50
2022-11-05T19:42:15.080Z,70.25
2022-11-05T19:44:43.814Z,71.00
2022-11-05T19:47:11.372Z,110.63
2022-11-05T19:49:38.889Z,89.68
2022-11-05T19:52:06.858Z,72.55
2022-11-05T19:54:36.028Z,86.18
2022-11-05T19:57:03.690Z,80.38
2022-11-05T19:59:31.321Z,85.43
2022-11-05T20:01:58.990Z,86.53
2022-11-05T20:04:26.726Z,87.15
2022-11-05T20:06:54.254Z,89.97
2022-11-05T20:09:23.209Z,98.95
2022-11-05T20:11:54.368Z,107.33
2022-11-05T20:14:23.748Z,96.47
2022-11-05T20:16:51.336Z,110.25
2022-11-05T20:19:21.145Z,106.78
2022-11-05T20:21:48.738Z,85.82
2022-11-05T20:24:23.794Z,89.67
2022-11-05T20:26:56.335Z,73.80
2022-11-05T20:29:30.526Z,60.65
2022-11-05T20:32:02.362Z,64.18
2022-11-05T20:34:30.820Z,56.88
2022-11-05T20:36:58.429Z,59.23
2022-11-05T20:39:26.069Z,58.38
2022-11-05T20:41:53.627Z,56.05
2022-11-05T20:44:21.172Z,68.32
2022-11-05T20:46:48.845Z,68.30
2022-11-05T20:49:20.044Z,66.97
2022-11-05T20:51:50.203Z,70.95
2022-11-05T20:54:17.814Z,77.35
2022-11-05T20:56:45.439Z,95.45
2022-11-05T20:59:12.939Z,97.07
2022-11-05T21:01:40.697Z,89.03
2022-11-05T21:04:08.408Z,78.10
2022-11-05T21:06:36.106Z,78.13
2022-11-05T21:09:04.327Z,80.97
2022-11-05T21:11:51.869Z,60.50
2022-11-05T21:14:19.695Z,61.57
2022-11-05T21:16:47.205Z,54.67
2022-11-05T21:19:15.747Z,58.28
2022-11-05T21:21:43.268Z,42.53
2022-11-05T21:24:10.840Z,42.05
2022-11-05T21:26:38.359Z,36.40
2022-11-05T21:29:07.727Z,37.13
2022-11-05T21:31:38.498Z,37.97
2022-11-05T21:34:06.134Z,38.67
2022-11-05T21:36:34.041Z,36.40
2022-11-05T21:39:02.042Z,37.83
2022-11-05T21:41:29.732Z,32.38
2022-11-05T21:43:57.444Z,35.63
2022-11-05T21:46:25.214Z,34.65
2022-11-05T21:48:53.029Z,43.58
2022-11-05T21:51:39.205Z,38.00
2022-11-05T21:54:25.620Z,38.13
2022-11-05T21:57:11.731Z,37.42
2022-11-05T21:59:48.052Z,38.92
2022-11-05T22:02:18.885Z,43.50
2022-11-05T22:04:50.235Z,32.37
2022-11-05T22:07:24.674Z,38.25
2022-11-05T22:09:52.490Z,26.35
2022-11-05T22:12:20.329Z,29.05
2022-11-05T22:14:47.855Z,31.23
2022-11-05T22:17:15.730Z,20.67
2022-11-05T22:19:43.332Z,20.05
2022-11-05T22:22:11.403Z,27.65
2022-11-05T22:24:40.175Z,19.92
2022-11-05T22:27:15.436Z,20.83
2022-11-05T22:29:43.325Z,24.17
2022-11-05T22:32:11.401Z,25.65
2022-11-05T22:34:39.149Z,19.08
2022-11-05T22:37:06.924Z,25.25
2022-11-05T22:39:34.477Z,20.63
2022-11-05T22:42:05.704Z,18.87
2022-11-05T22:44:36.868Z,25.20
2022-11-05T22:47:04.892Z,21.70
2022-11-05T22:49:33.310Z,19.40
2022-11-05T22:52:00.866Z,22.55
2022-11-05T22:54:28.452Z,14.73
2022-11-05T22:56:55.897Z,17.92
2022-11-05T22:59:23.532Z,16.17
2022-11-05T23:01:51.159Z,17.67
2022-11-05T23:04:18.731Z,21.05
2022-11-05T23:07:04.873Z,19.00
2022-11-05T23:09:53.061Z,20.88
2022-11-05T23:12:31.872Z,19.23
2022-11-05T23:15:00.885Z,20.05
2022-11-05T23:17:47.514Z,22.33
2022-11-05T23:20:37.257Z,15.00
2022-11-05T23:23:27.909Z,15.48
2022-11-05T23:26:21.656Z,13.38
2022-11-05T23:28:49.684Z,17.02
2022-11-05T23:31:35.608Z,15.88
2022-11-05T23:34:03.207Z,17.30
2022-11-05T23:36:49.068Z,17.38
2022-11-05T23:39:16.734Z,13.65
2022-11-05T23:42:02.685Z,14.57
2022-11-05T23:44:49.084Z,13.55
2022-11-05T23:47:35.379Z,23.73
2022-11-05T23:50:02.957Z,20.35
2022-11-05T23:52:30.476Z,18.65
2022-11-05T23:54:57.985Z,14.15
2022-11-05T23:57:25.530Z,15.85
2022-11-05T23:59:53.103Z,18.23
